createdAt,value
2019-04-11T00:00:41.672Z,17.03
2019-04-11T00:03:11.258Z,14.80
2019-04-11T00:05:39.754Z,18.07
2019-04-11T00:08:08.183Z,17.50
2019-04-11T00:10:37.496Z,15.73
2019-04-11T00:13:17.214Z,15.67
2019-04-11T00:15:37.068Z,15.40
2019-04-11T00:18:06.191Z,15.80
2019-04-11T00:20:35.960Z,15.70
2019-04-11T00:23:05.925Z,15.77
2019-04-11T00:28:34.643Z,15.90
2019-04-11T00:31:04.225Z,15.70
2019-04-11T00:33:32.664Z,15.57
2019-04-11T00:36:01.012Z,15.13
2019-04-11T00:38:29.978Z,19.20
2019-04-11T00:40:59.623Z,14.77
2019-04-11T00:43:35.290Z,15.67
2019-04-11T00:45:58.254Z,15.33
2019-04-11T00:48:26.628Z,15.87
2019-04-11T00:50:55.963Z,19.03
2019-04-11T00:53:25.613Z,15.57
2019-04-11T00:55:54.070Z,15.27
2019-04-11T00:58:22.516Z,16.97
2019-04-11T01:00:51.400Z,17.13
2019-04-11T01:03:20.140Z,15.20
2019-04-11T01:05:49.840Z,15.07
2019-04-11T01:08:18.344Z,14.63
2019-04-11T01:10:47.690Z,15.53
2019-04-11T01:13:17.489Z,15.57
2019-04-11T01:15:48.896Z,16.27
2019-04-11T01:18:18.041Z,23.30
2019-04-11T01:20:48.061Z,14.07
2019-04-11T01:23:16.593Z,16.67
2019-04-11T01:25:44.944Z,14.93
2019-04-11T01:28:14.292Z,16.03
2019-04-11T01:30:51.319Z,15.50
2019-04-11T01:33:20.682Z,15.57
2019-04-11T01:35:49.904Z,15.03
2019-04-11T01:38:21.290Z,14.47
2019-04-11T01:40:49.796Z,14.57
2019-04-11T01:43:18.175Z,15.20
2019-04-11T01:45:46.654Z,15.77
2019-04-11T01:48:23.712Z,17.10
2019-04-11T01:50:52.101Z,16.13
2019-04-11T01:53:20.480Z,16.67
2019-04-11T01:55:48.898Z,15.17
2019-04-11T01:58:18.374Z,15.80
2019-04-11T02:00:54.738Z,13.67
2019-04-11T02:03:25.455Z,14.87
2019-04-11T02:05:53.921Z,13.77
2019-04-11T02:08:23.014Z,17.03
2019-04-11T02:10:52.851Z,15.73
2019-04-11T02:13:21.448Z,16.37
2019-04-11T02:15:49.777Z,16.30
2019-04-11T02:18:19.298Z,16.13
2019-04-11T02:20:47.758Z,17.30
2019-04-11T02:23:17.746Z,19.80
2019-04-11T02:25:50.717Z,15.70
2019-04-11T02:28:20.306Z,16.37
2019-04-11T02:30:51.260Z,15.00
2019-04-11T02:33:21.764Z,17.47
2019-04-11T02:35:51.854Z,16.03
2019-04-11T02:38:21.502Z,15.70
2019-04-11T02:40:50.525Z,16.07
2019-04-11T02:43:20.219Z,14.93
2019-04-11T02:45:58.233Z,15.90
2019-04-11T02:48:20.428Z,17.00
2019-04-11T02:50:50.347Z,18.93
2019-04-11T02:53:21.330Z,18.03
2019-04-11T02:55:49.855Z,16.93
2019-04-11T02:58:18.694Z,16.23
2019-04-11T03:00:47.341Z,16.73
2019-04-11T03:03:17.406Z,15.33
2019-04-11T03:05:46.823Z,17.23
2019-04-11T03:08:18.904Z,18.20
2019-04-11T03:10:46.194Z,19.07
2019-04-11T03:13:16.567Z,18.43
2019-04-11T03:15:59.389Z,17.97
2019-04-11T03:18:39.219Z,16.70
2019-04-11T03:20:54.886Z,16.73
2019-04-11T03:23:20.656Z,16.83
2019-04-11T03:25:48.923Z,16.93
2019-04-11T03:28:22.660Z,17.17
2019-04-11T03:31:13.155Z,16.60
2019-04-11T03:34:09.474Z,16.53
2019-04-11T03:38:44.596Z,17.50
2019-04-11T03:41:05.881Z,16.37
2019-04-11T03:43:32.987Z,18.20
2019-04-11T03:46:10.855Z,16.53
2019-04-11T03:48:33.236Z,16.33
2019-04-11T03:50:52.525Z,16.83
2019-04-11T03:53:21.468Z,16.03
2019-04-11T03:55:49.580Z,18.70
2019-04-11T03:58:19.680Z,17.50
2019-04-11T04:00:50.491Z,19.33
2019-04-11T04:03:20.066Z,18.00
2019-04-11T04:05:50.610Z,17.57
2019-04-11T04:08:20.335Z,18.93
2019-04-11T04:11:06.244Z,20.07
2019-04-11T04:13:38.951Z,18.43
2019-04-11T04:16:22.154Z,18.67
2019-04-11T04:18:45.814Z,20.20
2019-04-11T04:21:19.514Z,19.30
2019-04-11T04:23:49.607Z,17.87
2019-04-11T04:26:19.168Z,20.50
2019-04-11T04:28:48.323Z,18.07
2019-04-11T04:31:18.490Z,19.20
2019-04-11T04:33:47.654Z,19.00
2019-04-11T04:36:18.233Z,19.73
2019-04-11T04:38:48.889Z,20.47
2019-04-11T04:41:29.808Z,18.97
2019-04-11T04:43:50.699Z,20.17
2019-04-11T04:46:34.717Z,20.20
2019-04-11T04:48:51.340Z,20.03
2019-04-11T04:51:20.516Z,18.73
2019-04-11T04:53:50.242Z,18.40
2019-04-11T04:56:24.443Z,17.40
2019-04-11T04:58:50.676Z,18.97
2019-04-11T05:01:21.731Z,20.80
2019-04-11T05:03:56.243Z,16.93
2019-04-11T05:06:26.201Z,17.77
2019-04-11T05:08:56.071Z,16.23
2019-04-11T05:11:26.264Z,16.70
2019-04-11T05:13:56.472Z,17.00
2019-04-11T05:16:25.159Z,18.03
2019-04-11T05:18:54.648Z,18.73
2019-04-11T05:21:23.373Z,16.93
2019-04-11T05:23:52.158Z,17.60
2019-04-11T05:26:21.537Z,21.17
2019-04-11T05:28:51.021Z,17.73
2019-04-11T05:31:20.632Z,17.10
2019-04-11T05:33:49.734Z,16.67
2019-04-11T05:36:18.672Z,17.07
2019-04-11T05:38:48.541Z,17.07
2019-04-11T05:41:17.710Z,16.13
2019-04-11T05:43:47.370Z,18.83
2019-04-11T05:46:26.066Z,16.90
2019-04-11T05:48:47.563Z,17.83
2019-04-11T05:51:21.198Z,17.17
2019-04-11T05:53:48.585Z,18.97
2019-04-11T05:56:19.189Z,16.97
2019-04-11T05:58:47.913Z,17.93
2019-04-11T06:01:27.859Z,16.50
2019-04-11T06:04:00.309Z,16.27
2019-04-11T06:06:36.849Z,18.27
2019-04-11T06:09:06.307Z,16.93
2019-04-11T06:11:43.181Z,17.30
2019-04-11T06:14:19.466Z,17.03
2019-04-11T06:16:53.841Z,18.17
2019-04-11T06:19:24.938Z,16.07
2019-04-11T06:21:56.090Z,17.40
2019-04-11T06:24:42.522Z,16.00
2019-04-11T06:27:13.851Z,16.30
2019-04-11T06:29:50.723Z,14.83
2019-04-11T06:32:27.778Z,14.83
2019-04-11T06:35:00.329Z,15.13
2019-04-11T06:37:33.986Z,14.50
2019-04-11T06:40:04.341Z,14.60
2019-04-11T06:42:35.043Z,15.27
2019-04-11T06:45:21.774Z,15.07
2019-04-11T06:47:59.025Z,14.67
2019-04-11T06:50:29.147Z,14.87
2019-04-11T06:52:58.213Z,13.60
2019-04-11T06:55:28.941Z,16.70
2019-04-11T06:57:59.125Z,14.80
2019-04-11T07:00:27.712Z,13.93
2019-04-11T07:02:57.791Z,13.47
2019-04-11T07:05:28.954Z,14.30
2019-04-11T07:07:59.914Z,12.97
2019-04-11T07:10:42.517Z,14.63
2019-04-11T07:13:16.378Z,13.67
2019-04-11T07:15:46.524Z,15.27
2019-04-11T07:18:34.195Z,13.03
2019-04-11T07:21:04.174Z,13.93
2019-04-11T07:23:51.423Z,13.10
2019-04-11T07:26:27.465Z,13.13
2019-04-11T07:28:58.563Z,13.03
2019-04-11T07:31:40.142Z,12.90
2019-04-11T07:34:27.327Z,12.80
2019-04-11T07:37:15.020Z,12.23
2019-04-11T07:40:00.985Z,26.40
2019-04-11T07:42:47.229Z,13.23
2019-04-11T07:45:34.355Z,12.30
2019-04-11T07:48:17.492Z,12.23
2019-04-11T07:50:46.544Z,11.37
2019-04-11T07:53:17.445Z,12.80
2019-04-11T07:55:46.642Z,11.17
2019-04-11T07:58:23.950Z,11.13
2019-04-11T08:00:59.690Z,11.67
2019-04-11T08:03:46.980Z,12.37
2019-04-11T08:06:33.632Z,12.80
2019-04-11T08:09:15.660Z,13.17
2019-04-11T08:11:45.655Z,10.93
2019-04-11T08:14:16.181Z,10.40
2019-04-11T08:17:03.775Z,13.90
2019-04-11T08:19:51.144Z,12.43
2019-04-11T08:22:21.262Z,10.43
2019-04-11T08:24:54.018Z,10.27
2019-04-11T08:27:50.065Z,11.20
2019-04-11T08:30:10.861Z,9.77
2019-04-11T08:32:49.938Z,10.33
2019-04-11T08:35:22.468Z,11.43
2019-04-11T08:38:04.658Z,10.00
2019-04-11T08:40:45.075Z,9.93
2019-04-11T08:43:15.258Z,10.27
2019-04-11T08:45:54.177Z,12.03
2019-04-11T08:48:23.194Z,9.37
2019-04-11T08:50:53.230Z,10.93
2019-04-11T08:53:40.622Z,9.50
2019-04-11T08:56:10.499Z,9.23
2019-04-11T08:58:44.767Z,9.40
2019-04-11T09:01:15.926Z,10.30
2019-04-11T09:03:57.353Z,9.40
2019-04-11T09:06:18.826Z,8.77
2019-04-11T09:09:00.676Z,9.90
2019-04-11T09:11:36.590Z,9.30
2019-04-11T09:14:22.108Z,10.63
2019-04-11T09:16:59.344Z,9.17
2019-04-11T09:19:47.248Z,9.57
2019-04-11T09:22:33.220Z,9.00
2019-04-11T09:25:09.232Z,13.23
2019-04-11T09:27:55.701Z,9.17
2019-04-11T09:30:43.050Z,9.53
2019-04-11T09:33:31.037Z,9.00
2019-04-11T09:36:17.303Z,9.27
2019-04-11T09:38:48.605Z,10.37
2019-04-11T09:41:35.014Z,9.43
2019-04-11T09:44:06.496Z,10.90
2019-04-11T09:46:36.674Z,10.13
2019-04-11T09:49:06.792Z,9.70
2019-04-11T09:51:42.712Z,9.30
2019-04-11T09:54:12.763Z,10.03
2019-04-11T09:56:51.823Z,12.80
2019-04-11T09:59:22.984Z,9.77
2019-04-11T10:02:05.958Z,9.83
2019-04-11T10:04:37.396Z,9.43
2019-04-11T10:07:28.274Z,12.10
2019-04-11T10:10:04.654Z,10.43
2019-04-11T10:12:52.064Z,9.60
2019-04-11T10:15:23.247Z,10.27
2019-04-11T10:18:20.247Z,10.23
2019-04-11T10:20:42.580Z,13.07
2019-04-11T10:23:18.802Z,11.37
2019-04-11T10:25:47.661Z,11.57
2019-04-11T10:28:21.689Z,11.17
2019-04-11T10:31:02.123Z,11.33
2019-04-11T10:33:49.026Z,11.73
2019-04-11T10:36:27.387Z,13.40
2019-04-11T10:39:02.770Z,11.27
2019-04-11T10:41:42.074Z,10.43
2019-04-11T10:44:14.000Z,11.13
2019-04-11T10:46:47.548Z,9.77
2019-04-11T10:49:30.390Z,9.63
2019-04-11T10:52:04.384Z,10.97
2019-04-11T10:54:34.495Z,9.63
2019-04-11T10:57:11.919Z,10.50
2019-04-11T10:59:42.901Z,9.80
2019-04-11T11:02:31.510Z,10.23
2019-04-11T11:05:01.208Z,9.67
2019-04-11T11:07:31.415Z,8.83
2019-04-11T11:10:03.919Z,8.87
2019-04-11T11:12:39.939Z,9.30
2019-04-11T11:15:17.710Z,10.17
2019-04-11T11:18:31.925Z,8.57
2019-04-11T11:20:51.792Z,9.47
2019-04-11T11:23:33.716Z,11.60
2019-04-11T11:26:22.742Z,9.30
2019-04-11T11:29:00.504Z,9.43
2019-04-11T11:31:49.633Z,10.33
2019-04-11T11:34:36.744Z,9.37
2019-04-11T11:37:08.975Z,11.17
2019-04-11T11:39:39.485Z,9.07
2019-04-11T11:42:26.156Z,10.33
2019-04-11T11:45:03.038Z,20.43
2019-04-11T11:47:53.145Z,13.23
2019-04-11T11:50:23.850Z,11.10
2019-04-11T11:53:13.201Z,9.40
2019-04-11T11:55:41.595Z,8.40
2019-04-11T11:58:27.937Z,8.30
2019-04-11T12:01:01.212Z,7.80
2019-04-11T12:03:33.065Z,8.27
2019-04-11T12:06:05.161Z,9.20
2019-04-11T12:08:35.484Z,8.50
2019-04-11T12:11:08.109Z,8.37
2019-04-11T12:13:57.921Z,8.87
2019-04-11T12:16:43.836Z,9.30
2019-04-11T12:19:22.608Z,9.50
2019-04-11T12:21:53.754Z,8.40
2019-04-11T12:24:26.569Z,8.70
2019-04-11T12:27:04.406Z,8.27
2019-04-11T12:29:36.858Z,8.93
2019-04-11T12:32:08.298Z,9.53
2019-04-11T12:34:58.001Z,8.97
2019-04-11T12:37:35.801Z,9.43
2019-04-11T12:40:30.134Z,7.63
2019-04-11T12:46:12.081Z,8.47
2019-04-11T12:48:44.228Z,8.20
2019-04-11T12:51:42.716Z,10.27
2019-04-11T12:54:11.798Z,8.63
2019-04-11T12:56:45.093Z,8.73
2019-04-11T12:59:13.479Z,9.50
2019-04-11T13:01:58.282Z,8.13
2019-04-11T13:04:28.296Z,8.77
2019-04-11T13:06:58.350Z,7.80
2019-04-11T13:09:40.514Z,9.50
2019-04-11T13:12:10.570Z,9.13
2019-04-11T13:14:46.444Z,7.83
2019-04-11T13:17:19.282Z,9.80
2019-04-11T13:20:05.645Z,8.73
2019-04-11T13:22:34.158Z,8.33
2019-04-11T13:25:20.808Z,9.43
2019-04-11T13:27:50.798Z,7.90
2019-04-11T13:30:36.757Z,8.33
2019-04-11T13:33:05.339Z,8.50
2019-04-11T13:35:51.316Z,8.23
2019-04-11T13:38:21.311Z,7.57
2019-04-11T13:40:51.327Z,8.30
2019-04-11T13:43:24.251Z,7.17
2019-04-11T13:46:09.351Z,7.30
2019-04-11T13:48:48.309Z,10.60
2019-04-11T13:51:30.734Z,7.73
2019-04-11T13:54:24.656Z,7.63
2019-04-11T13:56:54.735Z,6.87
2019-04-11T13:59:36.599Z,6.60
2019-04-11T14:02:15.384Z,7.10
2019-04-11T14:04:54.954Z,6.93
2019-04-11T14:07:30.574Z,5.50
2019-04-11T14:10:01.699Z,6.17
2019-04-11T14:12:33.467Z,6.03
2019-04-11T14:15:06.027Z,6.17
2019-04-11T14:17:35.051Z,6.43
2019-04-11T14:20:11.871Z,6.70
2019-04-11T14:22:43.696Z,7.43
2019-04-11T14:25:23.034Z,7.20
2019-04-11T14:27:53.127Z,6.10
2019-04-11T14:30:25.853Z,6.37
2019-04-11T14:32:54.526Z,6.23
2019-04-11T14:35:33.180Z,6.00
2019-04-11T14:38:09.311Z,5.93
2019-04-11T14:41:01.652Z,6.93
2019-04-11T14:43:30.121Z,6.07
2019-04-11T14:46:06.919Z,7.10
2019-04-11T14:48:40.709Z,6.13
2019-04-11T14:51:11.207Z,6.17
2019-04-11T14:53:41.285Z,6.40
2019-04-11T14:56:11.272Z,6.40
2019-04-11T14:58:41.292Z,6.77
2019-04-11T15:01:11.278Z,7.00
2019-04-11T15:03:57.390Z,6.90
2019-04-11T15:06:27.450Z,6.40
2019-04-11T15:09:03.464Z,6.80
2019-04-11T15:11:47.142Z,6.47
2019-04-11T15:14:33.256Z,6.40
2019-04-11T15:17:09.229Z,8.93
2019-04-11T15:19:39.446Z,7.60
2019-04-11T15:22:25.579Z,7.10
2019-04-11T15:25:13.604Z,8.17
2019-04-11T15:27:55.294Z,8.33
2019-04-11T15:30:25.655Z,6.23
2019-04-11T15:33:11.775Z,9.20
2019-04-11T15:35:40.115Z,8.70
2019-04-11T15:38:16.167Z,7.87
2019-04-11T15:40:45.451Z,7.50
2019-04-11T15:43:27.272Z,8.33
2019-04-11T15:45:57.331Z,7.47
2019-04-11T15:48:42.130Z,8.73
2019-04-11T15:51:23.975Z,8.33
2019-04-11T15:53:56.490Z,6.70
2019-04-11T15:56:42.475Z,7.60
2019-04-11T15:59:15.373Z,8.17
2019-04-11T16:01:45.428Z,8.23
2019-04-11T16:04:30.531Z,6.83
2019-04-11T16:07:13.368Z,7.20
2019-04-11T16:09:43.904Z,7.73
2019-04-11T16:12:17.164Z,7.40
2019-04-11T16:14:45.652Z,7.10
2019-04-11T16:17:31.626Z,7.67
2019-04-11T16:20:00.983Z,9.37
2019-04-11T16:22:31.118Z,8.07
2019-04-11T16:25:01.497Z,7.00
2019-04-11T16:27:47.834Z,8.20
2019-04-11T16:30:23.741Z,10.30
2019-04-11T16:32:54.655Z,7.43
2019-04-11T16:35:33.162Z,7.30
2019-04-11T16:38:14.384Z,7.17
2019-04-11T16:40:53.431Z,6.87
2019-04-11T16:43:27.416Z,7.30
2019-04-11T16:46:14.964Z,7.33
2019-04-11T16:48:44.674Z,7.70
2019-04-11T16:51:17.394Z,7.30
2019-04-11T16:53:47.624Z,8.43
2019-04-11T16:56:16.117Z,11.33
2019-04-11T16:58:49.337Z,10.03
2019-04-11T17:01:20.760Z,7.33
2019-04-11T17:03:54.918Z,8.57
2019-04-11T17:06:40.974Z,7.43
2019-04-11T17:09:16.481Z,9.83
2019-04-11T17:11:49.492Z,8.13
2019-04-11T17:14:27.656Z,7.03
2019-04-11T17:16:48.023Z,10.63
2019-04-11T17:19:16.968Z,7.77
2019-04-11T17:21:49.031Z,6.70
2019-04-11T17:24:18.081Z,7.70
2019-04-11T17:26:52.400Z,8.77
2019-04-11T17:29:20.313Z,6.73
2019-04-11T17:31:48.958Z,7.50
2019-04-11T17:34:17.307Z,7.67
2019-04-11T17:36:45.686Z,7.37
2019-04-11T17:39:14.035Z,6.90
2019-04-11T17:41:42.723Z,7.73
2019-04-11T17:44:11.513Z,6.80
2019-04-11T17:46:41.915Z,7.23
2019-04-11T17:49:10.549Z,6.97
2019-04-11T17:51:39.393Z,7.03
2019-04-11T17:54:08.319Z,7.20
2019-04-11T17:56:38.130Z,7.87
2019-04-11T17:59:07.302Z,6.63
2019-04-11T18:01:38.070Z,9.00
2019-04-11T18:04:08.855Z,7.10
2019-04-11T18:06:38.114Z,7.27
2019-04-11T18:09:10.383Z,6.57
2019-04-11T18:11:40.460Z,8.03
2019-04-11T18:14:09.458Z,6.70
2019-04-11T18:16:38.474Z,6.83
2019-04-11T18:19:09.767Z,7.10
2019-04-11T18:21:39.202Z,6.93
2019-04-11T18:24:08.827Z,7.40
2019-04-11T18:26:44.046Z,6.23
2019-04-11T18:29:22.940Z,7.03
2019-04-11T18:31:54.685Z,6.63
2019-04-11T18:34:25.713Z,7.70
2019-04-11T18:37:01.612Z,7.13
2019-04-11T18:39:30.968Z,7.53
2019-04-11T18:42:01.334Z,6.97
2019-04-11T18:44:35.772Z,7.40
2019-04-11T18:47:05.197Z,7.23
2019-04-11T18:49:41.239Z,10.87
2019-04-11T18:52:19.273Z,8.20
2019-04-11T18:54:40.449Z,9.77
2019-04-11T18:57:10.820Z,9.97
2019-04-11T18:59:40.100Z,11.00
2019-04-11T19:02:13.325Z,9.50
2019-04-11T19:04:43.586Z,9.50
2019-04-11T19:07:13.864Z,8.57
2019-04-11T19:09:43.874Z,9.43
2019-04-11T19:12:15.812Z,9.00
2019-04-11T19:14:46.106Z,9.53
2019-04-11T19:17:15.810Z,8.37
2019-04-11T19:19:48.856Z,9.00
2019-04-11T19:22:19.704Z,9.40
2019-04-11T19:24:48.294Z,8.83
2019-04-11T19:27:20.566Z,8.50
2019-04-11T19:29:50.853Z,8.00
2019-04-11T19:32:20.488Z,7.87
2019-04-11T19:34:50.216Z,8.57
2019-04-11T19:37:18.568Z,9.50
2019-04-11T19:39:47.016Z,8.60
2019-04-11T19:42:18.706Z,8.53
2019-04-11T19:44:49.364Z,8.43
2019-04-11T19:47:16.067Z,9.47
2019-04-11T19:49:44.647Z,8.50
2019-04-11T19:52:13.061Z,8.50
2019-04-11T19:54:41.497Z,8.20
2019-04-11T19:57:11.074Z,10.13
2019-04-11T19:59:39.452Z,11.93
2019-04-11T20:02:07.929Z,11.30
2019-04-11T20:04:36.298Z,9.50
2019-04-11T20:07:04.705Z,8.17
2019-04-11T20:09:33.085Z,8.23
2019-04-11T20:12:01.424Z,8.83
2019-04-11T20:14:33.862Z,9.77
2019-04-11T20:16:59.858Z,10.20
2019-04-11T20:19:28.210Z,10.30
2019-04-11T20:21:56.669Z,9.73
2019-04-11T20:24:25.002Z,9.23
2019-04-11T20:26:53.373Z,11.07
2019-04-11T20:29:23.565Z,11.00
2019-04-11T20:31:52.636Z,10.33
2019-04-11T20:34:27.495Z,9.83
2019-04-11T20:36:51.982Z,9.73
2019-04-11T20:39:20.817Z,10.37
2019-04-11T20:41:53.500Z,9.33
2019-04-11T20:44:27.146Z,10.03
2019-04-11T20:46:52.853Z,10.27
2019-04-11T20:49:21.194Z,10.30
2019-04-11T20:51:50.145Z,11.17
2019-04-11T20:54:19.011Z,11.57
2019-04-11T20:56:48.309Z,12.53
2019-04-11T20:59:19.959Z,12.63
2019-04-11T21:01:48.793Z,14.63
2019-04-11T21:04:17.680Z,17.70
2019-04-11T21:06:46.493Z,17.73
2019-04-11T21:09:15.208Z,17.40
2019-04-11T21:11:44.470Z,23.33
2019-04-11T21:14:13.054Z,18.73
2019-04-11T21:16:41.762Z,15.43
2019-04-11T21:19:10.174Z,14.57
2019-04-11T21:21:38.688Z,16.47
2019-04-11T21:24:07.487Z,15.23
2019-04-11T21:26:36.737Z,13.90
2019-04-11T21:29:06.117Z,13.97
2019-04-11T21:31:36.466Z,15.80
2019-04-11T21:34:05.925Z,14.67
2019-04-11T21:36:36.024Z,14.70
2019-04-11T21:39:06.877Z,13.67
2019-04-11T21:41:36.867Z,14.20
2019-04-11T21:44:06.460Z,14.60
2019-04-11T21:46:38.113Z,15.80
2019-04-11T21:49:07.057Z,14.03
2019-04-11T21:51:35.415Z,14.60
2019-04-11T21:54:05.266Z,14.63
2019-04-11T21:56:34.873Z,16.23
2019-04-11T21:59:03.783Z,14.43
2019-04-11T22:01:33.319Z,15.00
2019-04-11T22:04:01.841Z,13.53
2019-04-11T22:06:31.142Z,15.03
2019-04-11T22:09:00.087Z,15.23
2019-04-11T22:11:28.513Z,15.23
2019-04-11T22:13:57.024Z,16.20
2019-04-11T22:16:26.435Z,15.53
2019-04-11T22:18:55.099Z,15.73
2019-04-11T22:21:23.739Z,14.80
2019-04-11T22:23:52.971Z,15.90
2019-04-11T22:26:25.127Z,15.33
2019-04-11T22:28:55.194Z,16.40
2019-04-11T22:31:25.025Z,14.70
2019-04-11T22:33:57.632Z,17.30
2019-04-11T22:36:27.889Z,16.77
2019-04-11T22:39:01.010Z,13.93
2019-04-11T22:41:28.905Z,15.93
2019-04-11T22:43:57.285Z,15.93
2019-04-11T22:46:25.765Z,14.37
2019-04-11T22:48:54.146Z,12.83
2019-04-11T22:51:22.930Z,14.30
2019-04-11T22:53:59.908Z,11.20
2019-04-11T22:56:21.374Z,11.77
2019-04-11T22:58:49.756Z,11.43
2019-04-11T23:01:20.292Z,10.70
2019-04-11T23:03:52.413Z,12.47
2019-04-11T23:06:20.752Z,11.00
2019-04-11T23:08:49.572Z,11.27
2019-04-11T23:11:18.052Z,10.60
2019-04-11T23:13:46.404Z,12.20
2019-04-11T23:16:15.048Z,10.80
2019-04-11T23:18:44.211Z,9.63
2019-04-11T23:21:14.875Z,9.47
2019-04-11T23:23:43.311Z,10.30
2019-04-11T23:26:11.717Z,10.37
2019-04-11T23:28:40.106Z,12.53
2019-04-11T23:31:08.453Z,10.27
2019-04-11T23:33:36.869Z,10.13
2019-04-11T23:36:05.317Z,10.73
2019-04-11T23:38:33.658Z,10.67
2019-04-11T23:41:02.100Z,10.40
2019-04-11T23:43:30.443Z,11.13
2019-04-11T23:45:58.819Z,10.67
2019-04-11T23:48:27.162Z,10.30
2019-04-11T23:50:55.876Z,9.97
2019-04-11T23:53:28.324Z,15.17
2019-04-11T23:55:54.432Z,10.50
2019-04-11T23:58:22.778Z,11.03
